sensor_id;sensor_type;location;lat;lon;timestamp;pressure;altitude;pressure_sealevel;temperature;humidity
54872;BME280;43914;57.680;11.982;2022-09-03T00:05:37;101550.59;;;11.44;69.90
54872;BME280;43914;57.680;11.982;2022-09-03T00:08:35;101552.28;;;11.41;70.04
54872;BME280;43914;57.680;11.982;2022-09-03T00:11:45;101548.25;;;11.41;70.62
54872;BME280;43914;57.680;11.982;2022-09-03T00:14:24;101550.94;;;11.41;70.89
54872;BME280;43914;57.680;11.982;2022-09-03T00:19:36;101549.08;;;11.37;71.29
54872;BME280;43914;57.680;11.982;2022-09-03T00:22:09;101548.56;;;11.34;71.65
54872;BME280;43914;57.680;11.982;2022-09-03T00:24:42;101554.80;;;11.34;72.11
54872;BME280;43914;57.680;11.982;2022-09-03T00:27:12;101552.27;;;11.33;72.43
54872;BME280;43914;57.680;11.982;2022-09-03T00:29:48;101549.09;;;11.33;72.57
54872;BME280;43914;57.680;11.982;2022-09-03T00:32:21;101548.23;;;11.33;72.83
54872;BME280;43914;57.680;11.982;2022-09-03T00:35:08;101554.14;;;11.28;72.92
54872;BME280;43914;57.680;11.982;2022-09-03T00:37:36;101551.61;;;11.26;73.28
54872;BME280;43914;57.680;11.982;2022-09-03T00:40:04;101560.02;;;11.28;73.54
54872;BME280;43914;57.680;11.982;2022-09-03T00:42:46;101558.66;;;11.28;73.64
54872;BME280;43914;57.680;11.982;2022-09-03T00:45:37;101558.00;;;11.25;73.79
54872;BME280;43914;57.680;11.982;2022-09-03T00:48:21;101560.35;;;11.24;74.02
54872;BME280;43914;57.680;11.982;2022-09-03T00:51:10;101560.02;;;11.23;74.20
54872;BME280;43914;57.680;11.982;2022-09-03T00:59:43;101563.53;;;11.20;75.04
54872;BME280;43914;57.680;11.982;2022-09-03T01:02:15;101563.72;;;11.18;75.37
54872;BME280;43914;57.680;11.982;2022-09-03T01:05:13;101559.84;;;11.17;75.45
54872;BME280;43914;57.680;11.982;2022-09-03T01:13:16;101559.02;;;11.12;75.88
54872;BME280;43914;57.680;11.982;2022-09-03T01:16:15;101563.73;;;11.10;76.14
54872;BME280;43914;57.680;11.982;2022-09-03T01:19:09;101561.53;;;11.05;76.51
54872;BME280;43914;57.680;11.982;2022-09-03T01:24:43;101554.95;;;11.04;76.78
54872;BME280;43914;57.680;11.982;2022-09-03T01:30:07;101557.65;;;11.00;77.22
54872;BME280;43914;57.680;11.982;2022-09-03T01:32:44;101556.16;;;10.97;77.43
54872;BME280;43914;57.680;11.982;2022-09-03T01:50:06;101548.23;;;10.83;77.95
54872;BME280;43914;57.680;11.982;2022-09-03T01:53:26;101554.95;;;10.83;78.32
54872;BME280;43914;57.680;11.982;2022-09-03T02:04:13;101549.20;;;10.70;78.96
54872;BME280;43914;57.680;11.982;2022-09-03T02:06:45;101547.86;;;10.65;79.07
54872;BME280;43914;57.680;11.982;2022-09-03T02:09:18;101547.03;;;10.65;79.02
54872;BME280;43914;57.680;11.982;2022-09-03T02:11:43;101546.70;;;10.64;79.09
54872;BME280;43914;57.680;11.982;2022-09-03T02:14:12;101553.41;;;10.64;79.31
54872;BME280;43914;57.680;11.982;2022-09-03T02:16:38;101551.22;;;10.63;79.54
54872;BME280;43914;57.680;11.982;2022-09-03T02:19:07;101543.48;;;10.64;79.57
54872;BME280;43914;57.680;11.982;2022-09-03T02:21:39;101545.17;;;10.65;79.70
54872;BME280;43914;57.680;11.982;2022-09-03T02:24:08;101540.46;;;10.63;79.75
54872;BME280;43914;57.680;11.982;2022-09-03T02:26:35;101545.84;;;10.63;79.83
54872;BME280;43914;57.680;11.982;2022-09-03T02:29:02;101543.48;;;10.64;79.97
54872;BME280;43914;57.680;11.982;2022-09-03T02:31:28;101536.09;;;10.66;80.02
54872;BME280;43914;57.680;11.982;2022-09-03T02:33:56;101546.52;;;10.65;80.02
54872;BME280;43914;57.680;11.982;2022-09-03T02:36:28;101544.01;;;10.64;79.92
54872;BME280;43914;57.680;11.982;2022-09-03T02:39:05;101541.98;;;10.62;79.91
54872;BME280;43914;57.680;11.982;2022-09-03T02:41:32;101540.45;;;10.59;79.97
54872;BME280;43914;57.680;11.982;2022-09-03T02:44:17;101541.80;;;10.59;80.16
54872;BME280;43914;57.680;11.982;2022-09-03T02:46:56;101535.75;;;10.57;79.99
54872;BME280;43914;57.680;11.982;2022-09-03T02:49:23;101539.26;;;10.53;80.37
54872;BME280;43914;57.680;11.982;2022-09-03T02:51:49;101535.07;;;10.51;80.51
54872;BME280;43914;57.680;11.982;2022-09-03T02:54:15;101530.85;;;10.48;80.64
54872;BME280;43914;57.680;11.982;2022-09-03T02:56:41;101539.44;;;10.48;80.77
54872;BME280;43914;57.680;11.982;2022-09-03T02:59:08;101534.73;;;10.46;80.67
54872;BME280;43914;57.680;11.982;2022-09-03T03:01:34;101529.35;;;10.46;80.86
54872;BME280;43914;57.680;11.982;2022-09-03T03:04:02;101530.33;;;10.45;80.84
54872;BME280;43914;57.680;11.982;2022-09-03T03:06:28;101537.41;;;10.46;81.17
54872;BME280;43914;57.680;11.982;2022-09-03T03:08:54;101531.33;;;10.44;81.34
54872;BME280;43914;57.680;11.982;2022-09-03T03:11:20;101532.67;;;10.44;81.30
54872;BME280;43914;57.680;11.982;2022-09-03T03:13:47;101538.05;;;10.44;81.06
54872;BME280;43914;57.680;11.982;2022-09-03T03:16:14;101532.18;;;10.40;81.14
54872;BME280;43914;57.680;11.982;2022-09-03T03:18:41;101536.67;;;10.39;81.31
54872;BME280;43914;57.680;11.982;2022-09-03T03:21:09;101531.14;;;10.37;81.27
54872;BME280;43914;57.680;11.982;2022-09-03T03:23:38;101530.46;;;10.35;81.60
54872;BME280;43914;57.680;11.982;2022-09-03T03:26:09;101535.99;;;10.37;81.69
54872;BME280;43914;57.680;11.982;2022-09-03T03:28:37;101534.83;;;10.36;81.68
54872;BME280;43914;57.680;11.982;2022-09-03T03:31:07;101531.13;;;10.33;81.60
54872;BME280;43914;57.680;11.982;2022-09-03T03:33:34;101526.24;;;10.32;81.60
54872;BME280;43914;57.680;11.982;2022-09-03T03:36:11;101533.97;;;10.31;81.84
54872;BME280;43914;57.680;11.982;2022-09-03T03:38:40;101532.80;;;10.30;81.86
54872;BME280;43914;57.680;11.982;2022-09-03T03:41:13;101534.44;;;10.27;82.11
54872;BME280;43914;57.680;11.982;2022-09-03T03:43:41;101528.24;;;10.26;82.23
54872;BME280;43914;57.680;11.982;2022-09-03T03:46:07;101522.68;;;10.23;82.30
54872;BME280;43914;57.680;11.982;2022-09-03T03:48:35;101532.60;;;10.23;82.62
54872;BME280;43914;57.680;11.982;2022-09-03T03:51:05;101529.06;;;10.22;82.62
54872;BME280;43914;57.680;11.982;2022-09-03T03:53:34;101525.88;;;10.23;82.61
54872;BME280;43914;57.680;11.982;2022-09-03T03:56:04;101524.69;;;10.21;82.57
54872;BME280;43914;57.680;11.982;2022-09-03T03:58:32;101534.95;;;10.22;82.70
54872;BME280;43914;57.680;11.982;2022-09-03T04:01:10;101529.58;;;10.22;82.76
54872;BME280;43914;57.680;11.982;2022-09-03T04:03:38;101534.61;;;10.21;82.84
54872;BME280;43914;57.680;11.982;2022-09-03T04:06:06;101532.08;;;10.19;82.83
54872;BME280;43914;57.680;11.982;2022-09-03T04:08:35;101531.59;;;10.20;82.76
54872;BME280;43914;57.680;11.982;2022-09-03T04:11:05;101534.27;;;10.20;82.86
54872;BME280;43914;57.680;11.982;2022-09-03T04:13:34;101531.73;;;10.18;82.79
54872;BME280;43914;57.680;11.982;2022-09-03T04:16:14;101534.08;;;10.17;82.74
54872;BME280;43914;57.680;11.982;2022-09-03T04:18:42;101533.92;;;10.15;82.52
54872;BME280;43914;57.680;11.982;2022-09-03T04:21:11;101540.27;;;10.14;82.89
54872;BME280;43914;57.680;11.982;2022-09-03T04:23:41;101530.04;;;10.13;83.11
54872;BME280;43914;57.680;11.982;2022-09-03T04:26:10;101531.23;;;10.15;83.05
54872;BME280;43914;57.680;11.982;2022-09-03T04:28:39;101527.84;;;10.13;83.03
54872;BME280;43914;57.680;11.982;2022-09-03T04:31:10;101528.84;;;10.11;83.01
54872;BME280;43914;57.680;11.982;2022-09-03T04:33:38;101533.54;;;10.09;82.85
54872;BME280;43914;57.680;11.982;2022-09-03T04:36:10;101531.03;;;10.08;82.84
54872;BME280;43914;57.680;11.982;2022-09-03T04:38:41;101533.87;;;10.06;83.07
54872;BME280;43914;57.680;11.982;2022-09-03T04:41:11;101532.52;;;10.06;83.04
54872;BME280;43914;57.680;11.982;2022-09-03T04:43:39;101531.36;;;10.05;83.29
54872;BME280;43914;57.680;11.982;2022-09-03T04:46:10;101532.52;;;10.06;83.27
54872;BME280;43914;57.680;11.982;2022-09-03T04:48:37;101537.56;;;10.09;83.49
54872;BME280;43914;57.680;11.982;2022-09-03T04:51:06;101540.59;;;10.10;83.27
54872;BME280;43914;57.680;11.982;2022-09-03T04:53:37;101538.92;;;10.14;83.36
54872;BME280;43914;57.680;11.982;2022-09-03T04:56:19;101535.94;;;10.17;83.15
54872;BME280;43914;57.680;11.982;2022-09-03T04:58:47;101547.19;;;10.20;83.12
54872;BME280;43914;57.680;11.982;2022-09-03T05:01:19;101535.77;;;10.22;83.03
54872;BME280;43914;57.680;11.982;2022-09-03T05:03:46;101539.81;;;10.27;82.69
54872;BME280;43914;57.680;11.982;2022-09-03T05:06:13;101539.33;;;10.27;82.56
54872;BME280;43914;57.680;11.982;2022-09-03T05:08:42;101534.14;;;10.30;82.55
54872;BME280;43914;57.680;11.982;2022-09-03T05:11:10;101538.67;;;10.33;82.48
54872;BME280;43914;57.680;11.982;2022-09-03T05:13:36;101532.29;;;10.34;82.33
54872;BME280;43914;57.680;11.982;2022-09-03T05:16:05;101531.81;;;10.39;82.31
54872;BME280;43914;57.680;11.982;2022-09-03T05:18:33;101538.72;;;10.42;82.34
54872;BME280;43914;57.680;11.982;2022-09-03T05:21:08;101540.44;;;10.47;82.22
54872;BME280;43914;57.680;11.982;2022-09-03T05:23:40;101545.15;;;10.49;82.02
54872;BME280;43914;57.680;11.982;2022-09-03T05:26:09;101546.50;;;10.53;81.93
54872;BME280;43914;57.680;11.982;2022-09-03T05:28:40;101544.82;;;10.56;81.81
54872;BME280;43914;57.680;11.982;2022-09-03T05:31:09;101545.83;;;10.59;81.45
54872;BME280;43914;57.680;11.982;2022-09-03T05:33:44;101541.28;;;10.60;81.52
54872;BME280;43914;57.680;11.982;2022-09-03T05:36:14;101537.28;;;10.64;81.47
54872;BME280;43914;57.680;11.982;2022-09-03T05:38:42;101544.02;;;10.68;81.29
54872;BME280;43914;57.680;11.982;2022-09-03T05:41:10;101540.66;;;10.70;80.92
54872;BME280;43914;57.680;11.982;2022-09-03T05:43:37;101543.83;;;10.74;80.94
54872;BME280;43914;57.680;11.982;2022-09-03T05:46:07;101543.86;;;10.78;80.74
54872;BME280;43914;57.680;11.982;2022-09-03T05:48:40;101546.55;;;10.82;80.63
54872;BME280;43914;57.680;11.982;2022-09-03T05:51:15;101547.72;;;10.88;80.61
54872;BME280;43914;57.680;11.982;2022-09-03T05:53:46;101552.61;;;10.92;80.45
54872;BME280;43914;57.680;11.982;2022-09-03T05:56:15;101551.27;;;10.96;80.23
54872;BME280;43914;57.680;11.982;2022-09-03T05:58:46;101554.13;;;11.03;80.06
54872;BME280;43914;57.680;11.982;2022-09-03T06:01:16;101550.28;;;11.10;79.93
54872;BME280;43914;57.680;11.982;2022-09-03T06:06:26;101555.98;;;11.23;79.56
54872;BME280;43914;57.680;11.982;2022-09-03T06:08:55;101554.30;;;11.26;79.20
54872;BME280;43914;57.680;11.982;2022-09-03T06:11:24;101552.27;;;11.33;78.89
54872;BME280;43914;57.680;11.982;2022-09-03T06:13:57;101550.09;;;11.36;78.36
54872;BME280;43914;57.680;11.982;2022-09-03T06:16:28;101549.59;;;11.41;78.10
54872;BME280;43914;57.680;11.982;2022-09-03T06:18:54;101553.43;;;11.47;77.95
54872;BME280;43914;57.680;11.982;2022-09-03T06:21:20;101552.08;;;11.51;77.50
54872;BME280;43914;57.680;11.982;2022-09-03T06:23:51;101550.56;;;11.57;77.25
54872;BME280;43914;57.680;11.982;2022-09-03T06:26:20;101553.25;;;11.61;76.83
54872;BME280;43914;57.680;11.982;2022-09-03T06:28:47;101547.69;;;11.66;76.56
54872;BME280;43914;57.680;11.982;2022-09-03T06:31:16;101547.19;;;11.71;76.23
54872;BME280;43914;57.680;11.982;2022-09-03T06:33:44;101544.48;;;11.75;75.88
54872;BME280;43914;57.680;11.982;2022-09-03T06:36:14;101545.81;;;11.79;75.56
54872;BME280;43914;57.680;11.982;2022-09-03T06:38:43;101542.09;;;11.84;75.20
54872;BME280;43914;57.680;11.982;2022-09-03T06:41:15;101544.27;;;11.89;74.81
54872;BME280;43914;57.680;11.982;2022-09-03T06:43:46;101554.34;;;11.95;74.44
54872;BME280;43914;57.680;11.982;2022-09-03T06:46:15;101549.95;;;11.98;74.18
54872;BME280;43914;57.680;11.982;2022-09-03T06:48:43;101549.97;;;12.03;73.83
54872;BME280;43914;57.680;11.982;2022-09-03T06:51:13;101548.11;;;12.07;73.64
54872;BME280;43914;57.680;11.982;2022-09-03T06:53:45;101549.93;;;12.11;73.12
54872;BME280;43914;57.680;11.982;2022-09-03T06:56:19;101549.91;;;12.15;72.70
54872;BME280;43914;57.680;11.982;2022-09-03T06:58:45;101550.91;;;12.22;72.47
54872;BME280;43914;57.680;11.982;2022-09-03T07:01:15;101556.94;;;12.29;72.03
54872;BME280;43914;57.680;11.982;2022-09-03T07:03:45;101554.72;;;12.32;71.72
54872;BME280;43914;57.680;11.982;2022-09-03T07:06:17;101554.53;;;12.38;71.30
54872;BME280;43914;57.680;11.982;2022-09-03T07:08:45;101550.79;;;12.43;70.82
54872;BME280;43914;57.680;11.982;2022-09-03T07:11:14;101553.30;;;12.49;70.33
54872;BME280;43914;57.680;11.982;2022-09-03T07:13:46;101556.14;;;12.55;69.98
54872;BME280;43914;57.680;11.982;2022-09-03T07:18:54;101566.02;;;12.63;69.11
54872;BME280;43914;57.680;11.982;2022-09-03T07:21:23;101562.63;;;12.69;68.90
54872;BME280;43914;57.680;11.982;2022-09-03T07:23:51;101560.72;;;12.74;68.43
54872;BME280;43914;57.680;11.982;2022-09-03T07:26:23;101562.05;;;12.78;67.91
54872;BME280;43914;57.680;11.982;2022-09-03T07:28:55;101560.14;;;12.87;67.94
54872;BME280;43914;57.680;11.982;2022-09-03T07:31:24;101558.06;;;12.97;68.11
54872;BME280;43914;57.680;11.982;2022-09-03T07:34:09;101556.64;;;13.06;67.46
54872;BME280;43914;57.680;11.982;2022-09-03T07:36:42;101557.91;;;13.14;66.81
54872;BME280;43914;57.680;11.982;2022-09-03T07:39:15;101551.41;;;13.23;66.94
54872;BME280;43914;57.680;11.982;2022-09-03T07:41:43;101554.56;;;13.31;66.12
54872;BME280;43914;57.680;11.982;2022-09-03T07:44:12;101553.45;;;13.40;67.05
54872;BME280;43914;57.680;11.982;2022-09-03T07:46:39;101555.56;;;13.53;65.40
54872;BME280;43914;57.680;11.982;2022-09-03T07:49:06;101552.84;;;13.58;64.89
54872;BME280;43914;57.680;11.982;2022-09-03T07:51:34;101552.37;;;13.69;65.99
54872;BME280;43914;57.680;11.982;2022-09-03T07:54:04;101548.34;;;13.84;65.63
54872;BME280;43914;57.680;11.982;2022-09-03T07:56:33;101550.61;;;13.91;64.39
54872;BME280;43914;57.680;11.982;2022-09-03T07:59:00;101552.34;;;14.03;65.34
54872;BME280;43914;57.680;11.982;2022-09-03T08:01:28;101552.33;;;14.18;65.49
54872;BME280;43914;57.680;11.982;2022-09-03T08:03:57;101547.98;;;14.28;64.13
54872;BME280;43914;57.680;11.982;2022-09-03T08:06:25;101549.54;;;14.37;66.12
54872;BME280;43914;57.680;11.982;2022-09-03T08:08:59;101552.61;;;14.60;64.77
54872;BME280;43914;57.680;11.982;2022-09-03T08:11:28;101556.20;;;14.82;66.43
54872;BME280;43914;57.680;11.982;2022-09-03T08:13:58;101550.87;;;15.00;63.80
54872;BME280;43914;57.680;11.982;2022-09-03T08:16:29;101556.21;;;15.04;62.26
54872;BME280;43914;57.680;11.982;2022-09-03T08:18:57;101550.12;;;15.13;62.30
54872;BME280;43914;57.680;11.982;2022-09-03T08:21:24;101558.77;;;15.23;62.05
54872;BME280;43914;57.680;11.982;2022-09-03T08:23:53;101552.38;;;15.31;61.11
54872;BME280;43914;57.680;11.982;2022-09-03T08:26:22;101545.45;;;15.39;62.05
54872;BME280;43914;57.680;11.982;2022-09-03T08:28:51;101550.96;;;15.53;60.63
54872;BME280;43914;57.680;11.982;2022-09-03T08:31:21;101543.79;;;15.56;59.61
54872;BME280;43914;57.680;11.982;2022-09-03T08:33:53;101547.59;;;15.62;59.05
54872;BME280;43914;57.680;11.982;2022-09-03T08:36:27;101545.84;;;15.65;58.83
54872;BME280;43914;57.680;11.982;2022-09-03T08:38:54;101551.07;;;15.66;58.00
54872;BME280;43914;57.680;11.982;2022-09-03T08:47:47;101546.09;;;15.87;59.25
54872;BME280;43914;57.680;11.982;2022-09-03T08:50:25;101552.22;;;15.96;58.70
54872;BME280;43914;57.680;11.982;2022-09-03T08:58:15;101555.21;;;16.15;57.87
54872;BME280;43914;57.680;11.982;2022-09-03T09:06:57;101546.30;;;16.28;56.82
54872;BME280;43914;57.680;11.982;2022-09-03T09:09:32;101547.66;;;16.28;57.04
54872;BME280;43914;57.680;11.982;2022-09-03T09:15:13;101549.80;;;16.39;56.71
54872;BME280;43914;57.680;11.982;2022-09-03T09:21:06;101550.02;;;16.51;56.41
54872;BME280;43914;57.680;11.982;2022-09-03T09:23:39;101545.88;;;16.55;57.03
54872;BME280;43914;57.680;11.982;2022-09-03T09:26:05;101548.49;;;16.66;56.21
54872;BME280;43914;57.680;11.982;2022-09-03T09:28:35;101547.26;;;16.69;55.62
54872;BME280;43914;57.680;11.982;2022-09-03T09:31:03;101544.98;;;16.72;55.98
54872;BME280;43914;57.680;11.982;2022-09-03T09:33:33;101540.81;;;16.77;55.64
54872;BME280;43914;57.680;11.982;2022-09-03T09:36:06;101539.13;;;16.82;56.45
54872;BME280;43914;57.680;11.982;2022-09-03T09:38:35;101539.88;;;16.87;54.96
54872;BME280;43914;57.680;11.982;2022-09-03T09:41:15;101540.19;;;16.88;55.16
54872;BME280;43914;57.680;11.982;2022-09-03T09:43:40;101537.38;;;16.92;55.08
54872;BME280;43914;57.680;11.982;2022-09-03T09:46:18;101536.77;;;16.97;55.24
54872;BME280;43914;57.680;11.982;2022-09-03T09:48:54;101533.78;;;17.03;55.41
54872;BME280;43914;57.680;11.982;2022-09-03T09:51:24;101537.20;;;17.07;55.00
54872;BME280;43914;57.680;11.982;2022-09-03T09:54:23;101535.13;;;17.16;55.43
54872;BME280;43914;57.680;11.982;2022-09-03T09:56:45;101529.70;;;17.16;54.32
54872;BME280;43914;57.680;11.982;2022-09-03T09:59:14;101537.33;;;17.16;54.55
54872;BME280;43914;57.680;11.982;2022-09-03T10:01:41;101534.81;;;17.15;53.96
54872;BME280;43914;57.680;11.982;2022-09-03T10:04:23;101536.17;;;17.15;54.29
54872;BME280;43914;57.680;11.982;2022-09-03T10:06:55;101528.53;;;17.14;54.52
54872;BME280;43914;57.680;11.982;2022-09-03T10:09:29;101526.76;;;17.24;54.08
54872;BME280;43914;57.680;11.982;2022-09-03T10:12:08;101532.39;;;17.29;53.86
54872;BME280;43914;57.680;11.982;2022-09-03T10:14:42;101530.84;;;17.38;53.87
54872;BME280;43914;57.680;11.982;2022-09-03T10:23:31;101530.53;;;17.37;53.36
54872;BME280;43914;57.680;11.982;2022-09-03T10:28:37;101524.36;;;17.39;53.25
54872;BME280;43914;57.680;11.982;2022-09-03T10:34:28;101524.02;;;17.44;52.95
54872;BME280;43914;57.680;11.982;2022-09-03T10:48:34;101525.52;;;17.77;52.43
54872;BME280;43914;57.680;11.982;2022-09-03T10:54:35;101536.45;;;17.93;52.35
54872;BME280;43914;57.680;11.982;2022-09-03T11:05:36;101518.37;;;17.96;51.57
54872;BME280;43914;57.680;11.982;2022-09-03T11:08:11;101521.06;;;18.09;51.68
54872;BME280;43914;57.680;11.982;2022-09-03T11:10:51;101523.41;;;18.22;51.52
54872;BME280;43914;57.680;11.982;2022-09-03T11:13:32;101511.19;;;18.38;50.69
54872;BME280;43914;57.680;11.982;2022-09-03T11:16:07;101511.13;;;18.51;50.48
54872;BME280;43914;57.680;11.982;2022-09-03T11:18:42;101500.92;;;18.56;49.13
54872;BME280;43914;57.680;11.982;2022-09-03T11:21:12;101506.27;;;18.60;49.85
54872;BME280;43914;57.680;11.982;2022-09-03T11:23:44;101506.56;;;18.77;50.17
54872;BME280;43914;57.680;11.982;2022-09-03T11:26:15;101507.16;;;18.95;49.92
54872;BME280;43914;57.680;11.982;2022-09-03T11:28:53;101506.11;;;19.12;49.67
54872;BME280;43914;57.680;11.982;2022-09-03T11:34:07;101493.05;;;19.40;48.41
54872;BME280;43914;57.680;11.982;2022-09-03T11:36:39;101490.27;;;19.56;47.19
54872;BME280;43914;57.680;11.982;2022-09-03T11:39:19;101494.14;;;19.67;46.64
54872;BME280;43914;57.680;11.982;2022-09-03T11:41:58;101493.67;;;19.70;46.01
54872;BME280;43914;57.680;11.982;2022-09-03T11:44:36;101482.48;;;19.59;45.76
54872;BME280;43914;57.680;11.982;2022-09-03T11:47:21;101492.62;;;19.61;45.77
54872;BME280;43914;57.680;11.982;2022-09-03T11:49:51;101495.36;;;19.52;45.97
54872;BME280;43914;57.680;11.982;2022-09-03T11:52:26;101484.66;;;19.60;45.21
54872;BME280;43914;57.680;11.982;2022-09-03T11:54:57;101484.89;;;19.68;45.75
54872;BME280;43914;57.680;11.982;2022-09-03T11:57:29;101482.91;;;19.75;45.75
54872;BME280;43914;57.680;11.982;2022-09-03T12:00:14;101478.38;;;19.87;45.81
54872;BME280;43914;57.680;11.982;2022-09-03T12:02:48;101475.36;;;19.96;45.58
54872;BME280;43914;57.680;11.982;2022-09-03T12:17:12;101486.91;;;20.28;44.43
54872;BME280;43914;57.680;11.982;2022-09-03T12:22:22;101478.17;;;20.29;44.11
54872;BME280;43914;57.680;11.982;2022-09-03T12:24:50;101471.13;;;20.52;43.92
54872;BME280;43914;57.680;11.982;2022-09-03T12:27:25;101469.20;;;20.73;43.32
54872;BME280;43914;57.680;11.982;2022-09-03T12:29:54;101465.05;;;20.92;42.87
54872;BME280;43914;57.680;11.982;2022-09-03T12:32:28;101463.59;;;21.11;42.54
54872;BME280;43914;57.680;11.982;2022-09-03T12:35:08;101461.45;;;21.13;41.76
54872;BME280;43914;57.680;11.982;2022-09-03T12:37:31;101459.59;;;20.92;41.83
54872;BME280;43914;57.680;11.982;2022-09-03T12:39:59;101459.12;;;20.74;42.13
54872;BME280;43914;57.680;11.982;2022-09-03T12:42:27;101452.02;;;20.52;42.63
54872;BME280;43914;57.680;11.982;2022-09-03T12:45:03;101457.14;;;20.39;42.72
54872;BME280;43914;57.680;11.982;2022-09-03T12:47:36;101457.02;;;20.24;43.10
54872;BME280;43914;57.680;11.982;2022-09-03T12:50:15;101458.12;;;20.14;43.73
54872;BME280;43914;57.680;11.982;2022-09-03T12:52:47;101458.67;;;20.04;43.56
54872;BME280;43914;57.680;11.982;2022-09-03T12:55:33;101458.39;;;20.24;44.29
54872;BME280;43914;57.680;11.982;2022-09-03T12:58:25;101457.78;;;20.53;44.94
54872;BME280;43914;57.680;11.982;2022-09-03T13:01:12;101458.80;;;20.61;44.79
54872;BME280;43914;57.680;11.982;2022-09-03T13:03:49;101454.63;;;20.37;45.63
54872;BME280;43914;57.680;11.982;2022-09-03T13:06:25;101454.63;;;20.37;45.63
54872;BME280;43914;57.680;11.982;2022-09-03T13:09:09;101451.64;;;20.27;45.95
54872;BME280;43914;57.680;11.982;2022-09-03T13:11:37;101454.11;;;20.16;46.34
54872;BME280;43914;57.680;11.982;2022-09-03T13:14:05;101454.88;;;20.14;46.24
54872;BME280;43914;57.680;11.982;2022-09-03T13:25:36;101433.60;;;20.26;46.29
54872;BME280;43914;57.680;11.982;2022-09-03T13:31:22;101428.26;;;20.52;46.42
54872;BME280;43914;57.680;11.982;2022-09-03T13:34:08;101428.53;;;21.08;45.83
54872;BME280;43914;57.680;11.982;2022-09-03T13:36:44;101424.84;;;21.64;45.49
54872;BME280;43914;57.680;11.982;2022-09-03T13:39:26;101428.31;;;22.17;44.32
54872;BME280;43914;57.680;11.982;2022-09-03T13:42:10;101428.95;;;22.68;42.83
54872;BME280;43914;57.680;11.982;2022-09-03T13:44:45;101425.45;;;23.10;42.64
54872;BME280;43914;57.680;11.982;2022-09-03T13:47:40;101426.45;;;23.62;42.24
54872;BME280;43914;57.680;11.982;2022-09-03T13:50:52;101423.02;;;24.00;39.79
54872;BME280;43914;57.680;11.982;2022-09-03T13:53:35;101425.52;;;24.59;38.82
54872;BME280;43914;57.680;11.982;2022-09-03T13:56:06;101426.93;;;24.99;37.94
54872;BME280;43914;57.680;11.982;2022-09-03T13:58:47;101423.86;;;25.41;37.08
54872;BME280;43914;57.680;11.982;2022-09-03T14:01:32;101419.91;;;25.80;36.26
54872;BME280;43914;57.680;11.982;2022-09-03T14:03:58;101424.63;;;26.00;35.62
54872;BME280;43914;57.680;11.982;2022-09-03T14:06:41;101421.41;;;26.42;34.99
54872;BME280;43914;57.680;11.982;2022-09-03T14:15:29;101415.53;;;27.11;34.67
54872;BME280;43914;57.680;11.982;2022-09-03T14:21:23;101407.36;;;27.64;33.86
54872;BME280;43914;57.680;11.982;2022-09-03T14:24:13;101411.55;;;28.04;33.73
54872;BME280;43914;57.680;11.982;2022-09-03T14:26:55;101406.64;;;27.96;32.75
54872;BME280;43914;57.680;11.982;2022-09-03T14:29:31;101408.56;;;27.95;32.72
54872;BME280;43914;57.680;11.982;2022-09-03T14:35:05;101408.14;;;27.01;33.12
54872;BME280;43914;57.680;11.982;2022-09-03T14:43:01;101404.42;;;25.63;35.06
54872;BME280;43914;57.680;11.982;2022-09-03T14:46:08;101401.28;;;25.39;36.12
54872;BME280;43914;57.680;11.982;2022-09-03T14:49:14;101403.58;;;25.02;36.49
54872;BME280;43914;57.680;11.982;2022-09-03T14:51:57;101405.01;;;24.72;36.75
54872;BME280;43914;57.680;11.982;2022-09-03T15:00:33;101402.63;;;23.68;38.73
54872;BME280;43914;57.680;11.982;2022-09-03T15:03:30;101397.66;;;24.47;38.64
54872;BME280;43914;57.680;11.982;2022-09-03T15:11:29;101398.80;;;23.69;39.39
54872;BME280;43914;57.680;11.982;2022-09-03T15:16:44;101405.89;;;23.40;40.39
54872;BME280;43914;57.680;11.982;2022-09-03T15:25:47;101400.03;;;25.60;38.50
54872;BME280;43914;57.680;11.982;2022-09-03T15:31:46;101397.36;;;27.73;34.88
54872;BME280;43914;57.680;11.982;2022-09-03T15:38:01;101405.28;;;28.65;32.95
54872;BME280;43914;57.680;11.982;2022-09-03T15:43:07;101394.73;;;29.86;31.38
54872;BME280;43914;57.680;11.982;2022-09-03T15:45:53;101395.94;;;30.18;30.40
54872;BME280;43914;57.680;11.982;2022-09-03T15:51:32;101392.88;;;31.12;29.87
54872;BME280;43914;57.680;11.982;2022-09-03T15:57:08;101395.02;;;31.93;28.75
54872;BME280;43914;57.680;11.982;2022-09-03T15:59:40;101395.29;;;32.17;27.83
54872;BME280;43914;57.680;11.982;2022-09-03T16:02:17;101396.20;;;32.38;27.62
54872;BME280;43914;57.680;11.982;2022-09-03T16:04:52;101395.20;;;32.34;27.44
54872;BME280;43914;57.680;11.982;2022-09-03T16:22:14;101398.01;;;28.42;30.03
54872;BME280;43914;57.680;11.982;2022-09-03T16:27:41;101402.08;;;26.99;32.60
54872;BME280;43914;57.680;11.982;2022-09-03T16:48:58;101409.05;;;23.32;38.74
54872;BME280;43914;57.680;11.982;2022-09-03T17:00:16;101422.28;;;22.01;42.23
54872;BME280;43914;57.680;11.982;2022-09-03T17:08:42;101416.06;;;21.38;44.32
54872;BME280;43914;57.680;11.982;2022-09-03T17:14:20;101424.48;;;20.98;45.08
54872;BME280;43914;57.680;11.982;2022-09-03T17:22:52;101431.84;;;20.53;46.19
54872;BME280;43914;57.680;11.982;2022-09-03T17:25:36;101427.71;;;20.41;47.38
54872;BME280;43914;57.680;11.982;2022-09-03T17:30:58;101428.65;;;20.13;47.56